sensor_id;sensor_type;location;lat;lon;timestamp;temperature;humidity
38726;DHT22;24474;48.906;8.808;2022-10-16T00:00:32;15.60;99.90
38726;DHT22;24474;48.906;8.808;2022-10-16T00:02:57;15.60;99.90
38726;DHT22;24474;48.906;8.808;2022-10-16T00:05:23;15.60;99.90
38726;DHT22;24474;48.906;8.808;2022-10-16T00:07:50;15.50;99.90
38726;DHT22;24474;48.906;8.808;2022-10-16T00:10:16;15.60;99.90
38726;DHT22;24474;48.906;8.808;2022-10-16T00:12:43;15.50;99.90
38726;DHT22;24474;48.906;8.808;2022-10-16T00:15:08;15.60;99.90
38726;DHT22;24474;48.906;8.808;2022-10-16T00:17:34;15.50;99.90
38726;DHT22;24474;48.906;8.808;2022-10-16T00:20:12;15.50;99.90
38726;DHT22;24474;48.906;8.808;2022-10-16T00:22:38;15.60;99.90
38726;DHT22;24474;48.906;8.808;2022-10-16T00:25:04;15.50;99.90
38726;DHT22;24474;48.906;8.808;2022-10-16T00:27:29;15.50;99.90
38726;DHT22;24474;48.906;8.808;2022-10-16T00:29:55;15.50;99.90
38726;DHT22;24474;48.906;8.808;2022-10-16T00:32:24;15.60;99.90
38726;DHT22;24474;48.906;8.808;2022-10-16T00:34:49;15.50;99.90
38726;DHT22;24474;48.906;8.808;2022-10-16T00:37:15;15.60;99.90
38726;DHT22;24474;48.906;8.808;2022-10-16T00:39:41;15.60;99.90
38726;DHT22;24474;48.906;8.808;2022-10-16T00:42:06;15.60;99.90
38726;DHT22;24474;48.906;8.808;2022-10-16T00:44:47;15.70;99.90
38726;DHT22;24474;48.906;8.808;2022-10-16T00:50:10;15.70;99.90
38726;DHT22;24474;48.906;8.808;2022-10-16T00:52:37;15.70;99.90
38726;DHT22;24474;48.906;8.808;2022-10-16T00:55:06;15.70;99.90
38726;DHT22;24474;48.906;8.808;2022-10-16T00:57:32;15.70;99.90
38726;DHT22;24474;48.906;8.808;2022-10-16T00:59:57;15.70;99.90
38726;DHT22;24474;48.906;8.808;2022-10-16T01:02:24;15.70;99.90
38726;DHT22;24474;48.906;8.808;2022-10-16T01:04:52;15.70;99.90
38726;DHT22;24474;48.906;8.808;2022-10-16T01:15:54;15.80;99.90
38726;DHT22;24474;48.906;8.808;2022-10-16T01:18:57;15.80;99.90
38726;DHT22;24474;48.906;8.808;2022-10-16T01:21:36;15.80;99.90
38726;DHT22;24474;48.906;8.808;2022-10-16T01:24:24;15.80;99.90
38726;DHT22;24474;48.906;8.808;2022-10-16T01:34:54;15.80;99.90
38726;DHT22;24474;48.906;8.808;2022-10-16T01:38:01;15.90;99.90
38726;DHT22;24474;48.906;8.808;2022-10-16T01:40:29;15.90;99.90
38726;DHT22;24474;48.906;8.808;2022-10-16T01:43:08;15.80;99.90
38726;DHT22;24474;48.906;8.808;2022-10-16T01:45:38;15.90;99.90
38726;DHT22;24474;48.906;8.808;2022-10-16T01:48:05;15.90;99.90
38726;DHT22;24474;48.906;8.808;2022-10-16T01:50:37;16.00;99.90
38726;DHT22;24474;48.906;8.808;2022-10-16T01:53:05;15.90;99.90
38726;DHT22;24474;48.906;8.808;2022-10-16T01:55:35;16.00;99.90
38726;DHT22;24474;48.906;8.808;2022-10-16T01:58:05;16.00;99.90
38726;DHT22;24474;48.906;8.808;2022-10-16T02:00:32;16.00;99.90
38726;DHT22;24474;48.906;8.808;2022-10-16T02:02:58;15.90;99.90
38726;DHT22;24474;48.906;8.808;2022-10-16T02:05:34;15.90;99.90
38726;DHT22;24474;48.906;8.808;2022-10-16T02:08:02;15.90;99.90
38726;DHT22;24474;48.906;8.808;2022-10-16T02:10:28;15.90;99.90
38726;DHT22;24474;48.906;8.808;2022-10-16T02:13:36;16.00;99.90
38726;DHT22;24474;48.906;8.808;2022-10-16T02:16:03;16.00;99.90
38726;DHT22;24474;48.906;8.808;2022-10-16T02:18:29;16.00;99.90
38726;DHT22;24474;48.906;8.808;2022-10-16T02:21:19;15.90;99.90
38726;DHT22;24474;48.906;8.808;2022-10-16T02:24:12;15.90;99.90
38726;DHT22;24474;48.906;8.808;2022-10-16T02:29:19;15.90;99.90
38726;DHT22;24474;48.906;8.808;2022-10-16T02:31:49;15.90;99.90
38726;DHT22;24474;48.906;8.808;2022-10-16T02:34:16;15.90;99.90
38726;DHT22;24474;48.906;8.808;2022-10-16T02:36:47;15.80;99.90
38726;DHT22;24474;48.906;8.808;2022-10-16T02:39:16;15.80;99.90
38726;DHT22;24474;48.906;8.808;2022-10-16T02:41:42;15.90;99.90
38726;DHT22;24474;48.906;8.808;2022-10-16T02:44:08;15.80;99.90
38726;DHT22;24474;48.906;8.808;2022-10-16T02:46:33;15.80;99.90
38726;DHT22;24474;48.906;8.808;2022-10-16T02:48:59;15.80;99.90
38726;DHT22;24474;48.906;8.808;2022-10-16T02:51:24;15.90;99.90
38726;DHT22;24474;48.906;8.808;2022-10-16T02:53:50;15.80;99.90
38726;DHT22;24474;48.906;8.808;2022-10-16T02:56:15;15.80;99.90
38726;DHT22;24474;48.906;8.808;2022-10-16T02:58:41;15.80;99.90
38726;DHT22;24474;48.906;8.808;2022-10-16T03:01:07;15.80;99.90
38726;DHT22;24474;48.906;8.808;2022-10-16T03:03:33;15.80;99.90
38726;DHT22;24474;48.906;8.808;2022-10-16T03:05:58;15.80;99.90
38726;DHT22;24474;48.906;8.808;2022-10-16T03:08:24;15.80;99.90
38726;DHT22;24474;48.906;8.808;2022-10-16T03:10:51;15.70;99.90
38726;DHT22;24474;48.906;8.808;2022-10-16T03:13:17;15.70;99.90
38726;DHT22;24474;48.906;8.808;2022-10-16T03:15:43;15.70;99.90
38726;DHT22;24474;48.906;8.808;2022-10-16T03:18:09;15.70;99.90
38726;DHT22;24474;48.906;8.808;2022-10-16T03:20:34;15.70;99.90
38726;DHT22;24474;48.906;8.808;2022-10-16T03:23:00;15.70;99.90
38726;DHT22;24474;48.906;8.808;2022-10-16T03:25:26;15.70;99.90
38726;DHT22;24474;48.906;8.808;2022-10-16T03:27:52;15.60;99.90
38726;DHT22;24474;48.906;8.808;2022-10-16T03:30:17;15.70;99.90
38726;DHT22;24474;48.906;8.808;2022-10-16T03:32:46;15.60;99.90
38726;DHT22;24474;48.906;8.808;2022-10-16T03:35:12;15.60;99.90
38726;DHT22;24474;48.906;8.808;2022-10-16T03:37:38;15.60;99.90
38726;DHT22;24474;48.906;8.808;2022-10-16T03:40:04;15.60;99.90
38726;DHT22;24474;48.906;8.808;2022-10-16T03:42:30;15.60;99.90
38726;DHT22;24474;48.906;8.808;2022-10-16T03:44:56;15.60;99.90
38726;DHT22;24474;48.906;8.808;2022-10-16T03:47:21;15.60;99.90
38726;DHT22;24474;48.906;8.808;2022-10-16T03:49:49;15.60;99.90
38726;DHT22;24474;48.906;8.808;2022-10-16T03:52:15;15.60;99.90
38726;DHT22;24474;48.906;8.808;2022-10-16T03:54:41;15.60;99.90
38726;DHT22;24474;48.906;8.808;2022-10-16T03:57:06;15.60;99.90
38726;DHT22;24474;48.906;8.808;2022-10-16T03:59:32;15.60;99.90
38726;DHT22;24474;48.906;8.808;2022-10-16T04:01:58;15.60;99.90
38726;DHT22;24474;48.906;8.808;2022-10-16T04:04:23;15.60;99.90
38726;DHT22;24474;48.906;8.808;2022-10-16T04:06:50;15.60;99.90
38726;DHT22;24474;48.906;8.808;2022-10-16T04:09:16;15.50;99.90
38726;DHT22;24474;48.906;8.808;2022-10-16T04:11:41;15.60;99.90
38726;DHT22;24474;48.906;8.808;2022-10-16T04:14:07;15.60;99.90
38726;DHT22;24474;48.906;8.808;2022-10-16T04:16:33;15.50;99.90
38726;DHT22;24474;48.906;8.808;2022-10-16T04:18:58;15.60;99.90
38726;DHT22;24474;48.906;8.808;2022-10-16T04:21:24;15.60;99.90
38726;DHT22;24474;48.906;8.808;2022-10-16T04:23:51;15.50;99.90
38726;DHT22;24474;48.906;8.808;2022-10-16T04:26:17;15.50;99.90
38726;DHT22;24474;48.906;8.808;2022-10-16T04:28:43;15.60;99.90
38726;DHT22;24474;48.906;8.808;2022-10-16T04:31:09;15.50;99.90
38726;DHT22;24474;48.906;8.808;2022-10-16T04:33:35;15.60;99.90
38726;DHT22;24474;48.906;8.808;2022-10-16T04:36:02;15.60;99.90
38726;DHT22;24474;48.906;8.808;2022-10-16T04:38:28;15.60;99.90
38726;DHT22;24474;48.906;8.808;2022-10-16T04:40:53;15.60;99.90
38726;DHT22;24474;48.906;8.808;2022-10-16T04:43:19;15.50;99.90
38726;DHT22;24474;48.906;8.808;2022-10-16T04:45:45;15.50;99.90
38726;DHT22;24474;48.906;8.808;2022-10-16T04:48:12;15.50;99.90
38726;DHT22;24474;48.906;8.808;2022-10-16T04:50:37;15.50;99.90
38726;DHT22;24474;48.906;8.808;2022-10-16T04:53:03;15.50;99.90
38726;DHT22;24474;48.906;8.808;2022-10-16T04:55:31;15.50;99.90
38726;DHT22;24474;48.906;8.808;2022-10-16T04:57:57;15.50;99.90
38726;DHT22;24474;48.906;8.808;2022-10-16T05:00:23;15.50;99.90
38726;DHT22;24474;48.906;8.808;2022-10-16T05:02:51;15.50;99.90
38726;DHT22;24474;48.906;8.808;2022-10-16T05:05:17;15.50;99.90
38726;DHT22;24474;48.906;8.808;2022-10-16T05:07:45;15.50;99.90
38726;DHT22;24474;48.906;8.808;2022-10-16T05:10:11;15.40;99.90
38726;DHT22;24474;48.906;8.808;2022-10-16T05:12:36;15.40;99.90
38726;DHT22;24474;48.906;8.808;2022-10-16T05:15:02;15.40;99.90
38726;DHT22;24474;48.906;8.808;2022-10-16T05:17:28;15.40;99.90
38726;DHT22;24474;48.906;8.808;2022-10-16T05:19:54;15.40;99.90
38726;DHT22;24474;48.906;8.808;2022-10-16T05:22:19;15.40;99.90
38726;DHT22;24474;48.906;8.808;2022-10-16T05:24:45;15.50;99.90
38726;DHT22;24474;48.906;8.808;2022-10-16T05:27:10;15.40;99.90
38726;DHT22;24474;48.906;8.808;2022-10-16T05:29:37;15.40;99.90
38726;DHT22;24474;48.906;8.808;2022-10-16T05:32:03;15.30;99.90
38726;DHT22;24474;48.906;8.808;2022-10-16T05:34:28;15.40;99.90
38726;DHT22;24474;48.906;8.808;2022-10-16T05:36:54;15.40;99.90
38726;DHT22;24474;48.906;8.808;2022-10-16T05:39:20;15.40;99.90
38726;DHT22;24474;48.906;8.808;2022-10-16T05:41:49;15.40;99.90
38726;DHT22;24474;48.906;8.808;2022-10-16T05:44:15;15.40;99.90
38726;DHT22;24474;48.906;8.808;2022-10-16T05:46:41;15.40;99.90
38726;DHT22;24474;48.906;8.808;2022-10-16T05:49:06;15.30;99.90
38726;DHT22;24474;48.906;8.808;2022-10-16T05:51:33;15.40;99.90
38726;DHT22;24474;48.906;8.808;2022-10-16T05:53:59;15.40;99.90
38726;DHT22;24474;48.906;8.808;2022-10-16T05:56:24;15.40;99.90
38726;DHT22;24474;48.906;8.808;2022-10-16T05:58:50;15.40;99.90
38726;DHT22;24474;48.906;8.808;2022-10-16T06:01:18;15.40;99.90
38726;DHT22;24474;48.906;8.808;2022-10-16T06:03:44;15.40;99.90
38726;DHT22;24474;48.906;8.808;2022-10-16T06:06:12;15.40;99.90
38726;DHT22;24474;48.906;8.808;2022-10-16T06:08:39;15.40;99.90
38726;DHT22;24474;48.906;8.808;2022-10-16T06:11:07;15.40;99.90
38726;DHT22;24474;48.906;8.808;2022-10-16T06:13:33;15.40;99.90
38726;DHT22;24474;48.906;8.808;2022-10-16T06:15:59;15.40;99.90
38726;DHT22;24474;48.906;8.808;2022-10-16T06:18:26;15.40;99.90
38726;DHT22;24474;48.906;8.808;2022-10-16T06:20:53;15.40;99.90
38726;DHT22;24474;48.906;8.808;2022-10-16T06:23:19;15.40;99.90
38726;DHT22;24474;48.906;8.808;2022-10-16T06:25:45;15.40;99.90
38726;DHT22;24474;48.906;8.808;2022-10-16T06:28:11;15.50;99.90
38726;DHT22;24474;48.906;8.808;2022-10-16T06:30:36;15.40;99.90
38726;DHT22;24474;48.906;8.808;2022-10-16T06:33:03;15.50;99.90
38726;DHT22;24474;48.906;8.808;2022-10-16T06:35:28;15.50;99.90
38726;DHT22;24474;48.906;8.808;2022-10-16T06:37:54;15.50;99.90
38726;DHT22;24474;48.906;8.808;2022-10-16T06:40:20;15.50;99.90
38726;DHT22;24474;48.906;8.808;2022-10-16T06:42:46;15.50;99.90
38726;DHT22;24474;48.906;8.808;2022-10-16T06:45:11;15.50;99.90
38726;DHT22;24474;48.906;8.808;2022-10-16T06:47:38;15.70;99.90
38726;DHT22;24474;48.906;8.808;2022-10-16T06:50:04;15.50;99.90
38726;DHT22;24474;48.906;8.808;2022-10-16T06:52:32;15.60;99.90
38726;DHT22;24474;48.906;8.808;2022-10-16T06:54:58;15.50;99.90
38726;DHT22;24474;48.906;8.808;2022-10-16T06:57:26;15.60;99.90
38726;DHT22;24474;48.906;8.808;2022-10-16T06:59:55;15.60;99.90
38726;DHT22;24474;48.906;8.808;2022-10-16T07:02:22;15.60;99.90
38726;DHT22;24474;48.906;8.808;2022-10-16T07:04:49;15.60;99.90
38726;DHT22;24474;48.906;8.808;2022-10-16T07:07:14;15.70;99.90
38726;DHT22;24474;48.906;8.808;2022-10-16T07:09:40;15.70;99.90
38726;DHT22;24474;48.906;8.808;2022-10-16T07:12:06;15.70;99.90
38726;DHT22;24474;48.906;8.808;2022-10-16T07:14:32;15.70;99.90
38726;DHT22;24474;48.906;8.808;2022-10-16T07:16:58;15.70;99.90
38726;DHT22;24474;48.906;8.808;2022-10-16T07:19:25;15.70;99.90
38726;DHT22;24474;48.906;8.808;2022-10-16T07:21:52;15.70;99.90
38726;DHT22;24474;48.906;8.808;2022-10-16T07:24:18;15.70;99.90
38726;DHT22;24474;48.906;8.808;2022-10-16T07:26:45;15.70;99.90
38726;DHT22;24474;48.906;8.808;2022-10-16T07:29:17;15.70;99.90
38726;DHT22;24474;48.906;8.808;2022-10-16T07:31:44;15.80;99.90
38726;DHT22;24474;48.906;8.808;2022-10-16T07:34:13;15.80;99.90
38726;DHT22;24474;48.906;8.808;2022-10-16T07:36:41;15.90;99.90
38726;DHT22;24474;48.906;8.808;2022-10-16T07:39:07;15.90;99.90
38726;DHT22;24474;48.906;8.808;2022-10-16T07:41:33;15.90;99.90
38726;DHT22;24474;48.906;8.808;2022-10-16T07:44:03;16.00;99.90
38726;DHT22;24474;48.906;8.808;2022-10-16T07:46:29;16.10;99.90
38726;DHT22;24474;48.906;8.808;2022-10-16T07:48:56;16.20;99.90
38726;DHT22;24474;48.906;8.808;2022-10-16T07:51:33;16.20;99.90
38726;DHT22;24474;48.906;8.808;2022-10-16T07:53:58;16.30;99.90
38726;DHT22;24474;48.906;8.808;2022-10-16T07:56:25;16.30;99.90
38726;DHT22;24474;48.906;8.808;2022-10-16T07:58:51;16.30;99.90
38726;DHT22;24474;48.906;8.808;2022-10-16T08:01:18;16.40;99.90
38726;DHT22;24474;48.906;8.808;2022-10-16T08:04:02;16.40;99.90
38726;DHT22;24474;48.906;8.808;2022-10-16T08:06:27;16.50;99.90
38726;DHT22;24474;48.906;8.808;2022-10-16T08:08:53;16.60;99.90
38726;DHT22;24474;48.906;8.808;2022-10-16T08:11:20;16.60;99.90
38726;DHT22;24474;48.906;8.808;2022-10-16T08:13:45;16.60;99.90
38726;DHT22;24474;48.906;8.808;2022-10-16T08:16:11;16.70;99.90
38726;DHT22;24474;48.906;8.808;2022-10-16T08:18:38;16.70;99.90
38726;DHT22;24474;48.906;8.808;2022-10-16T08:21:05;16.70;99.90
38726;DHT22;24474;48.906;8.808;2022-10-16T08:23:32;16.80;99.90
38726;DHT22;24474;48.906;8.808;2022-10-16T08:26:08;16.90;99.90
38726;DHT22;24474;48.906;8.808;2022-10-16T08:28:39;17.00;99.90
38726;DHT22;24474;48.906;8.808;2022-10-16T08:31:07;16.90;99.90
38726;DHT22;24474;48.906;8.808;2022-10-16T08:33:33;17.00;99.90
38726;DHT22;24474;48.906;8.808;2022-10-16T08:36:00;17.10;99.90
38726;DHT22;24474;48.906;8.808;2022-10-16T08:38:26;17.10;99.90
38726;DHT22;24474;48.906;8.808;2022-10-16T08:40:57;17.20;99.90
38726;DHT22;24474;48.906;8.808;2022-10-16T08:43:35;17.20;99.90
38726;DHT22;24474;48.906;8.808;2022-10-16T08:46:07;17.30;99.90
38726;DHT22;24474;48.906;8.808;2022-10-16T08:49:06;17.40;99.90
38726;DHT22;24474;48.906;8.808;2022-10-16T08:51:36;17.50;99.90
38726;DHT22;24474;48.906;8.808;2022-10-16T08:54:08;17.50;99.90
38726;DHT22;24474;48.906;8.808;2022-10-16T08:56:40;17.60;99.90
38726;DHT22;24474;48.906;8.808;2022-10-16T08:59:10;17.70;99.90
38726;DHT22;24474;48.906;8.808;2022-10-16T09:01:45;17.70;99.90
38726;DHT22;24474;48.906;8.808;2022-10-16T09:06:47;17.90;99.90
38726;DHT22;24474;48.906;8.808;2022-10-16T09:12:53;17.90;99.90
38726;DHT22;24474;48.906;8.808;2022-10-16T09:23:36;18.10;99.90
38726;DHT22;24474;48.906;8.808;2022-10-16T09:26:03;18.10;99.90
38726;DHT22;24474;48.906;8.808;2022-10-16T09:28:30;18.20;99.90
38726;DHT22;24474;48.906;8.808;2022-10-16T09:30:55;18.20;99.90
38726;DHT22;24474;48.906;8.808;2022-10-16T09:33:25;18.30;99.90
38726;DHT22;24474;48.906;8.808;2022-10-16T09:35:54;18.40;99.90
38726;DHT22;24474;48.906;8.808;2022-10-16T09:38:29;18.40;99.90
38726;DHT22;24474;48.906;8.808;2022-10-16T09:41:00;18.40;99.90
38726;DHT22;24474;48.906;8.808;2022-10-16T09:43:52;18.60;99.90
38726;DHT22;24474;48.906;8.808;2022-10-16T09:46:32;18.70;99.90
38726;DHT22;24474;48.906;8.808;2022-10-16T09:49:00;18.80;99.90
38726;DHT22;24474;48.906;8.808;2022-10-16T09:51:44;19.00;99.90
38726;DHT22;24474;48.906;8.808;2022-10-16T09:54:19;19.10;99.90
38726;DHT22;24474;48.906;8.808;2022-10-16T09:56:49;19.20;99.90
38726;DHT22;24474;48.906;8.808;2022-10-16T09:59:22;19.10;99.90
38726;DHT22;24474;48.906;8.808;2022-10-16T10:02:08;19.20;99.90
38726;DHT22;24474;48.906;8.808;2022-10-16T10:04:40;19.30;99.90
38726;DHT22;24474;48.906;8.808;2022-10-16T10:07:26;19.30;99.90
38726;DHT22;24474;48.906;8.808;2022-10-16T10:09:53;19.30;99.90
38726;DHT22;24474;48.906;8.808;2022-10-16T10:12:27;19.30;99.90
38726;DHT22;24474;48.906;8.808;2022-10-16T10:14:56;19.20;99.90
38726;DHT22;24474;48.906;8.808;2022-10-16T10:17:28;19.30;99.90
38726;DHT22;24474;48.906;8.808;2022-10-16T10:20:01;19.20;99.90
38726;DHT22;24474;48.906;8.808;2022-10-16T10:22:41;19.30;99.90
38726;DHT22;24474;48.906;8.808;2022-10-16T10:31:06;19.50;99.90
38726;DHT22;24474;48.906;8.808;2022-10-16T10:34:24;19.60;99.90
38726;DHT22;24474;48.906;8.808;2022-10-16T10:36:41;19.60;99.90
38726;DHT22;24474;48.906;8.808;2022-10-16T10:39:14;19.60;99.90
38726;DHT22;24474;48.906;8.808;2022-10-16T10:50:22;19.70;99.90
38726;DHT22;24474;48.906;8.808;2022-10-16T11:01:48;19.60;99.90
38726;DHT22;24474;48.906;8.808;2022-10-16T11:07:31;19.60;99.90
38726;DHT22;24474;48.906;8.808;2022-10-16T11:10:03;19.60;99.90
38726;DHT22;24474;48.906;8.808;2022-10-16T11:12:36;19.50;99.90
38726;DHT22;24474;48.906;8.808;2022-10-16T11:17:39;19.60;99.90
38726;DHT22;24474;48.906;8.808;2022-10-16T11:20:28;19.60;99.90
38726;DHT22;24474;48.906;8.808;2022-10-16T11:25:40;19.80;99.90
38726;DHT22;24474;48.906;8.808;2022-10-16T11:30:57;19.90;99.90
38726;DHT22;24474;48.906;8.808;2022-10-16T11:33:55;20.00;99.90
38726;DHT22;24474;48.906;8.808;2022-10-16T11:36:23;20.00;99.90
38726;DHT22;24474;48.906;8.808;2022-10-16T11:39:04;20.10;99.90
38726;DHT22;24474;48.906;8.808;2022-10-16T11:45:36;20.20;99.90
38726;DHT22;24474;48.906;8.808;2022-10-16T11:47:44;20.20;99.90
38726;DHT22;24474;48.906;8.808;2022-10-16T11:50:20;20.20;99.90
38726;DHT22;24474;48.906;8.808;2022-10-16T11:55:27;20.20;99.90
38726;DHT22;24474;48.906;8.808;2022-10-16T11:58:04;20.20;99.90
38726;DHT22;24474;48.906;8.808;2022-10-16T12:01:26;20.10;99.90
38726;DHT22;24474;48.906;8.808;2022-10-16T12:06:49;20.10;99.90
38726;DHT22;24474;48.906;8.808;2022-10-16T12:09:29;20.20;99.90
38726;DHT22;24474;48.906;8.808;2022-10-16T12:11:55;20.20;99.90
38726;DHT22;24474;48.906;8.808;2022-10-16T12:16:58;20.30;99.90
38726;DHT22;24474;48.906;8.808;2022-10-16T12:19:26;20.30;99.90
38726;DHT22;24474;48.906;8.808;2022-10-16T12:21:57;20.30;99.90
38726;DHT22;24474;48.906;8.808;2022-10-16T12:24:35;20.30;99.90
38726;DHT22;24474;48.906;8.808;2022-10-16T12:27:03;20.40;99.90
38726;DHT22;24474;48.906;8.808;2022-10-16T12:29:37;20.30;99.90
38726;DHT22;24474;48.906;8.808;2022-10-16T12:32:36;20.30;99.90
38726;DHT22;24474;48.906;8.808;2022-10-16T12:35:04;20.30;99.90
38726;DHT22;24474;48.906;8.808;2022-10-16T12:37:35;20.40;99.90
38726;DHT22;24474;48.906;8.808;2022-10-16T12:40:23;20.40;99.90
38726;DHT22;24474;48.906;8.808;2022-10-16T12:42:50;20.40;99.90
38726;DHT22;24474;48.906;8.808;2022-10-16T12:45:33;20.50;99.90
38726;DHT22;24474;48.906;8.808;2022-10-16T12:48:04;20.50;99.90
38726;DHT22;24474;48.906;8.808;2022-10-16T12:50:42;20.50;99.90
38726;DHT22;24474;48.906;8.808;2022-10-16T12:53:25;20.50;99.90
38726;DHT22;24474;48.906;8.808;2022-10-16T12:56:04;20.50;99.90
38726;DHT22;24474;48.906;8.808;2022-10-16T13:01:35;20.60;99.90
38726;DHT22;24474;48.906;8.808;2022-10-16T13:07:44;20.50;99.90
38726;DHT22;24474;48.906;8.808;2022-10-16T13:10:25;20.50;99.90
38726;DHT22;24474;48.906;8.808;2022-10-16T13:16:05;20.60;99.90
38726;DHT22;24474;48.906;8.808;2022-10-16T13:18:46;20.60;99.90
38726;DHT22;24474;48.906;8.808;2022-10-16T13:29:17;20.80;99.90
38726;DHT22;24474;48.906;8.808;2022-10-16T13:31:47;20.80;99.90
38726;DHT22;24474;48.906;8.808;2022-10-16T13:34:17;20.80;99.90
38726;DHT22;24474;48.906;8.808;2022-10-16T13:41:57;20.80;99.90
38726;DHT22;24474;48.906;8.808;2022-10-16T13:44:24;20.80;99.90
38726;DHT22;24474;48.906;8.808;2022-10-16T13:47:00;20.80;99.90
38726;DHT22;24474;48.906;8.808;2022-10-16T13:49:26;20.80;99.90
38726;DHT22;24474;48.906;8.808;2022-10-16T13:51:57;20.80;99.90
38726;DHT22;24474;48.906;8.808;2022-10-16T13:54:26;20.80;99.90
38726;DHT22;24474;48.906;8.808;2022-10-16T13:56:53;20.80;99.90
38726;DHT22;24474;48.906;8.808;2022-10-16T13:59:36;20.80;99.90
38726;DHT22;24474;48.906;8.808;2022-10-16T14:02:33;20.70;99.90
38726;DHT22;24474;48.906;8.808;2022-10-16T14:05:01;20.70;99.90
38726;DHT22;24474;48.906;8.808;2022-10-16T14:07:32;20.70;99.90
38726;DHT22;24474;48.906;8.808;2022-10-16T14:10:06;20.70;99.90
38726;DHT22;24474;48.906;8.808;2022-10-16T14:12:33;20.70;99.90
38726;DHT22;24474;48.906;8.808;2022-10-16T14:15:05;20.70;99.90
38726;DHT22;24474;48.906;8.808;2022-10-16T14:17:33;20.80;99.90
38726;DHT22;24474;48.906;8.808;2022-10-16T14:20:02;20.70;99.90
38726;DHT22;24474;48.906;8.808;2022-10-16T14:22:38;20.70;99.90
38726;DHT22;24474;48.906;8.808;2022-10-16T14:25:37;20.70;99.90
38726;DHT22;24474;48.906;8.808;2022-10-16T14:33:39;20.70;99.90
38726;DHT22;24474;48.906;8.808;2022-10-16T14:36:12;20.60;99.90
38726;DHT22;24474;48.906;8.808;2022-10-16T14:38:40;20.60;99.90
38726;DHT22;24474;48.906;8.808;2022-10-16T14:41:06;20.60;99.90
38726;DHT22;24474;48.906;8.808;2022-10-16T14:43:40;20.70;99.90
38726;DHT22;24474;48.906;8.808;2022-10-16T14:46:15;20.70;99.90
38726;DHT22;24474;48.906;8.808;2022-10-16T14:48:44;20.70;99.90
38726;DHT22;24474;48.906;8.808;2022-10-16T14:51:29;20.80;99.90
38726;DHT22;24474;48.906;8.808;2022-10-16T14:53:56;20.80;99.90
38726;DHT22;24474;48.906;8.808;2022-10-16T14:56:49;20.70;99.90
38726;DHT22;24474;48.906;8.808;2022-10-16T14:59:27;20.70;99.90
38726;DHT22;24474;48.906;8.808;2022-10-16T15:01:56;20.70;99.90
38726;DHT22;24474;48.906;8.808;2022-10-16T15:04:23;20.60;99.90
38726;DHT22;24474;48.906;8.808;2022-10-16T15:06:51;20.60;99.90
38726;DHT22;24474;48.906;8.808;2022-10-16T15:09:17;20.60;99.90
38726;DHT22;24474;48.906;8.808;2022-10-16T15:11:44;20.50;99.90
38726;DHT22;24474;48.906;8.808;2022-10-16T15:14:12;20.50;99.90
38726;DHT22;24474;48.906;8.808;2022-10-16T15:16:41;20.50;99.90
38726;DHT22;24474;48.906;8.808;2022-10-16T15:19:07;20.50;99.90
38726;DHT22;24474;48.906;8.808;2022-10-16T15:21:33;20.40;99.90
38726;DHT22;24474;48.906;8.808;2022-10-16T15:24:01;20.40;99.90
38726;DHT22;24474;48.906;8.808;2022-10-16T15:26:29;20.40;99.90
38726;DHT22;24474;48.906;8.808;2022-10-16T15:28:55;20.40;99.90
38726;DHT22;24474;48.906;8.808;2022-10-16T15:31:21;20.40;99.90
38726;DHT22;24474;48.906;8.808;2022-10-16T15:33:52;20.40;99.90
38726;DHT22;24474;48.906;8.808;2022-10-16T15:36:28;20.40;99.90
38726;DHT22;24474;48.906;8.808;2022-10-16T15:38:54;20.40;99.90
38726;DHT22;24474;48.906;8.808;2022-10-16T15:41:21;20.40;99.90
38726;DHT22;24474;48.906;8.808;2022-10-16T15:43:51;20.30;99.90
38726;DHT22;24474;48.906;8.808;2022-10-16T15:46:20;20.30;99.90
38726;DHT22;24474;48.906;8.808;2022-10-16T15:48:49;20.30;99.90
38726;DHT22;24474;48.906;8.808;2022-10-16T15:51:25;20.30;99.90
38726;DHT22;24474;48.906;8.808;2022-10-16T15:53:53;20.20;99.90
38726;DHT22;24474;48.906;8.808;2022-10-16T15:56:20;20.20;99.90
38726;DHT22;24474;48.906;8.808;2022-10-16T15:58:48;20.20;99.90
38726;DHT22;24474;48.906;8.808;2022-10-16T16:01:15;20.10;99.90
38726;DHT22;24474;48.906;8.808;2022-10-16T16:03:42;20.10;99.90
38726;DHT22;24474;48.906;8.808;2022-10-16T16:06:12;20.00;99.90
38726;DHT22;24474;48.906;8.808;2022-10-16T16:08:40;20.00;99.90
38726;DHT22;24474;48.906;8.808;2022-10-16T16:11:29;19.90;99.90
38726;DHT22;24474;48.906;8.808;2022-10-16T16:13:57;19.90;99.90
38726;DHT22;24474;48.906;8.808;2022-10-16T16:16:23;19.80;99.90
38726;DHT22;24474;48.906;8.808;2022-10-16T16:18:52;19.80;99.90
38726;DHT22;24474;48.906;8.808;2022-10-16T16:21:18;19.80;99.90
38726;DHT22;24474;48.906;8.808;2022-10-16T16:23:44;19.70;99.90
38726;DHT22;24474;48.906;8.808;2022-10-16T16:26:22;19.70;99.90
38726;DHT22;24474;48.906;8.808;2022-10-16T16:28:53;19.70;99.90
38726;DHT22;24474;48.906;8.808;2022-10-16T16:31:20;19.60;99.90
38726;DHT22;24474;48.906;8.808;2022-10-16T16:33:51;19.50;99.90
38726;DHT22;24474;48.906;8.808;2022-10-16T16:36:17;19.50;99.90
38726;DHT22;24474;48.906;8.808;2022-10-16T16:38:45;19.50;99.90
38726;DHT22;24474;48.906;8.808;2022-10-16T16:41:19;19.30;99.90
38726;DHT22;24474;48.906;8.808;2022-10-16T16:43:48;19.30;99.90
38726;DHT22;24474;48.906;8.808;2022-10-16T16:46:14;19.30;99.90
38726;DHT22;24474;48.906;8.808;2022-10-16T16:48:42;19.20;99.90
38726;DHT22;24474;48.906;8.808;2022-10-16T16:51:15;19.20;99.90
38726;DHT22;24474;48.906;8.808;2022-10-16T16:53:48;19.10;99.90
38726;DHT22;24474;48.906;8.808;2022-10-16T16:56:19;19.00;99.90
38726;DHT22;24474;48.906;8.808;2022-10-16T16:58:49;19.00;99.90
38726;DHT22;24474;48.906;8.808;2022-10-16T17:01:15;18.90;99.90
38726;DHT22;24474;48.906;8.808;2022-10-16T17:03:43;18.80;99.90
38726;DHT22;24474;48.906;8.808;2022-10-16T17:06:12;18.80;99.90
38726;DHT22;24474;48.906;8.808;2022-10-16T17:08:38;18.70;99.90
38726;DHT22;24474;48.906;8.808;2022-10-16T17:11:11;18.70;99.90
38726;DHT22;24474;48.906;8.808;2022-10-16T17:13:41;18.60;99.90
38726;DHT22;24474;48.906;8.808;2022-10-16T17:16:09;18.60;99.90
38726;DHT22;24474;48.906;8.808;2022-10-16T17:18:36;18.50;99.90
38726;DHT22;24474;48.906;8.808;2022-10-16T17:21:04;18.50;99.90
38726;DHT22;24474;48.906;8.808;2022-10-16T17:23:33;18.50;99.90
38726;DHT22;24474;48.906;8.808;2022-10-16T17:26:12;18.50;99.90
38726;DHT22;24474;48.906;8.808;2022-10-16T17:28:51;18.50;99.90
38726;DHT22;24474;48.906;8.808;2022-10-16T17:31:22;18.40;99.90
38726;DHT22;24474;48.906;8.808;2022-10-16T17:33:48;18.40;99.90
38726;DHT22;24474;48.906;8.808;2022-10-16T17:36:14;18.30;99.90
38726;DHT22;24474;48.906;8.808;2022-10-16T17:38:40;18.30;99.90